Time;durP1;ratioP1;P1;durP2;ratioP2;P2;SDS_P1;SDS_P2;PMS_P1;PMS_P2;Temp;Humidity;BMP_temperature;BMP_pressure;BME280_temperature;BME280_humidity;BME280_pressure;Samples;Min_cycle;Max_cycle;Signal;HPM_P1;HPM_P2
2023/09/29 00:01:27;;;;;;;;;;;;;;;20.11;60.29;99795.00;10329496;28;813;-73
2023/09/29 00:06:23;;;;;;;;;;;;;;;20.11;60.30;99795.00;10329189;28;797;-73
2023/09/29 00:11:19;;;;;;;;;;;;;;;20.10;60.30;99788.00;10329011;28;921;-73
2023/09/29 00:16:15;;;;;;;;;;;;;;;20.10;60.44;99792.44;10328509;28;1963;-73
2023/09/29 00:21:11;;;;;;;;;;;;;;;20.10;60.27;99806.53;10328350;28;845;-73
2023/09/29 00:26:07;;;;;;;;;;;;;;;20.08;60.45;99805.75;10327688;28;887;-73
2023/09/29 00:31:03;;;;;;;;;;;;;;;20.10;60.49;99808.34;10327931;28;1682;-73
2023/09/29 00:36:02;;;;;;;;;;;;;;;20.08;60.28;99803.09;10327660;28;1975;-73
2023/09/29 00:40:58;;;;;;;;;;;;;;;20.09;60.33;99798.66;10328327;28;816;-73
2023/09/29 00:45:53;;;;;;;;;;;;;;;20.08;60.29;99805.75;10327599;28;814;-73
2023/09/29 00:50:49;;;;;;;;;;;;;;;20.09;60.31;99798.66;10327776;28;806;-73
2023/09/29 00:55:45;;;;;;;;;;;;;;;20.08;60.45;99804.91;10327018;28;1898;-73
2023/09/29 01:00:41;;;;;;;;;;;;;;;20.08;60.30;99795.16;10327046;28;874;-73
2023/09/29 01:05:38;;;;;;;;;;;;;;;20.08;60.34;99786.38;10326700;28;849;-73
2023/09/29 01:10:34;;;;;;;;;;;;;;;20.07;60.44;99788.19;10326964;28;910;-74
2023/09/29 01:15:31;;;;;;;;;;;;;;;20.06;60.36;99778.50;10327034;28;1897;-73
2023/09/29 01:20:29;;;;;;;;;;;;;;;20.06;60.37;99785.59;10326127;28;862;-74
2023/09/29 01:25:24;;;;;;;;;;;;;;;20.06;60.35;99790.88;10327019;28;806;-73
2023/09/29 01:30:20;;;;;;;;;;;;;;;20.04;60.39;99787.47;10324933;28;1424;-72
2023/09/29 01:35:23;;;;;;;;;;;;;;;20.04;60.35;99783.06;10325341;28;1910;-73
2023/09/29 01:40:22;;;;;;;;;;;;;;;20.04;60.57;99782.16;10325742;28;958;-73
2023/09/29 01:45:18;;;;;;;;;;;;;;;20.02;60.61;99784.06;10325664;28;774;-73
2023/09/29 01:50:17;;;;;;;;;;;;;;;20.02;60.45;99778.78;10325958;28;857;-73
2023/09/29 01:55:16;;;;;;;;;;;;;;;20.01;60.56;99769.09;10326042;28;1961;-72
2023/09/29 02:00:19;;;;;;;;;;;;;;;20.00;60.49;99760.31;10325370;28;810;-74
2023/09/29 02:05:16;;;;;;;;;;;;;;;19.98;60.48;99754.25;10325233;28;840;-74
2023/09/29 02:10:12;;;;;;;;;;;;;;;19.99;60.63;99757.75;10325387;28;825;-74
2023/09/29 02:15:08;;;;;;;;;;;;;;;19.98;60.64;99762.19;10324981;28;1918;-74
2023/09/29 02:20:41;;;;;;;;;;;;;;;19.99;60.60;99755.09;10324944;28;806;-73
2023/09/29 02:25:26;;;;;;;;;;;;;;;19.98;60.57;99750.75;10321812;28;1470;-73
2023/09/29 02:30:22;;;;;;;;;;;;;;;19.99;60.71;99747.16;10324662;28;1061;-73
2023/09/29 02:35:18;;;;;;;;;;;;;;;19.98;60.49;99748.09;10323983;28;1906;-73
2023/09/29 02:40:15;;;;;;;;;;;;;;;19.98;60.51;99737.53;10324537;28;779;-73
2023/09/29 02:45:11;;;;;;;;;;;;;;;19.97;60.52;99744.59;10329696;28;969;-73
2023/09/29 02:50:07;;;;;;;;;;;;;;;19.97;60.70;99746.41;10331820;28;934;-73
2023/09/29 02:55:04;;;;;;;;;;;;;;;19.95;60.56;99740.34;10332117;28;1914;-73
2023/09/29 03:00:06;;;;;;;;;;;;;;;19.95;60.47;99741.19;10331624;28;877;-73
2023/09/29 03:05:05;;;;;;;;;;;;;;;19.95;60.58;99721.81;10331597;28;814;-73
2023/09/29 03:10:01;;;;;;;;;;;;;;;19.95;60.54;99719.16;10331914;28;798;-73
2023/09/29 03:14:57;;;;;;;;;;;;;;;19.95;60.68;99730.59;10331645;28;1897;-73
2023/09/29 03:19:53;;;;;;;;;;;;;;;19.95;60.43;99733.25;10331567;28;908;-74
2023/09/29 03:24:49;;;;;;;;;;;;;;;19.95;60.58;99727.94;10330800;28;838;-73
2023/09/29 03:29:45;;;;;;;;;;;;;;;19.92;60.67;99715.75;10330878;28;845;-74
2023/09/29 03:34:41;;;;;;;;;;;;;;;19.93;60.68;99719.25;10330887;28;1977;-73
2023/09/29 03:39:37;;;;;;;;;;;;;;;19.91;60.61;99714.03;10330982;28;791;-73
2023/09/29 03:44:33;;;;;;;;;;;;;;;19.92;60.58;99705.16;10330702;28;805;-73
2023/09/29 03:49:29;;;;;;;;;;;;;;;19.91;60.59;99713.16;10329909;28;913;-73
2023/09/29 03:54:26;;;;;;;;;;;;;;;19.91;60.53;99707.88;10328715;28;1953;-73
2023/09/29 03:59:24;;;;;;;;;;;;;;;19.92;60.51;99714.91;10330260;28;858;-73
2023/09/29 04:04:19;;;;;;;;;;;;;;;19.91;60.43;99707.88;10329531;28;954;-73
2023/09/29 04:09:15;;;;;;;;;;;;;;;19.91;60.58;99706.09;10329652;28;833;-74
2023/09/29 04:14:11;;;;;;;;;;;;;;;19.92;60.49;99696.38;10328821;28;1910;-73
2023/09/29 04:19:07;;;;;;;;;;;;;;;19.92;60.59;99697.22;10329039;28;1075;-73
2023/09/29 04:24:03;;;;;;;;;;;;;;;19.92;60.48;99694.59;10329068;28;953;-74
2023/09/29 04:28:59;;;;;;;;;;;;;;;19.90;60.66;99696.44;10329015;28;871;-74
2023/09/29 04:33:55;;;;;;;;;;;;;;;19.89;60.71;99684.16;10327378;28;1918;-73
2023/09/29 04:38:51;;;;;;;;;;;;;;;19.93;60.64;99676.91;10327884;28;867;-73
2023/09/29 04:43:47;;;;;;;;;;;;;;;19.95;60.52;99680.34;10327636;28;853;-73
2023/09/29 04:48:43;;;;;;;;;;;;;;;19.96;60.62;99673.25;10328062;28;838;-73
2023/09/29 04:53:39;;;;;;;;;;;;;;;19.98;60.48;99664.28;10327107;28;1979;-73
2023/09/29 04:58:34;;;;;;;;;;;;;;;19.99;60.58;99657.19;10326494;28;791;-74
2023/09/29 05:03:31;;;;;;;;;;;;;;;20.01;60.62;99642.97;10326901;28;857;-73
2023/09/29 05:08:27;;;;;;;;;;;;;;;20.02;60.47;99630.59;10326659;28;1173;-74
2023/09/29 05:13:25;;;;;;;;;;;;;;;20.04;60.41;99653.41;10327027;28;1901;-73
2023/09/29 05:18:23;;;;;;;;;;;;;;;20.05;60.62;99651.59;10327015;28;959;-73
2023/09/29 05:23:19;;;;;;;;;;;;;;;20.05;60.36;99648.97;10326203;28;871;-73
2023/09/29 05:28:14;;;;;;;;;;;;;;;20.05;60.54;99638.38;10325945;28;961;-73
2023/09/29 05:33:10;;;;;;;;;;;;;;;20.04;60.44;99648.09;10326076;28;1993;-74
2023/09/29 05:38:06;;;;;;;;;;;;;;;20.05;60.45;99648.97;10326035;28;843;-73
2023/09/29 05:43:04;;;;;;;;;;;;;;;20.03;60.39;99649.03;10326251;28;1053;-74
2023/09/29 05:48:00;;;;;;;;;;;;;;;20.05;60.48;99649.81;10326648;28;875;-74
2023/09/29 05:52:57;;;;;;;;;;;;;;;20.07;60.51;99642.66;10325310;28;1906;-74
2023/09/29 05:57:53;;;;;;;;;;;;;;;20.09;60.42;99637.25;10325488;28;834;-74
2023/09/29 06:02:49;;;;;;;;;;;;;;;20.10;60.46;99633.69;10324663;28;854;-73
2023/09/29 06:07:45;;;;;;;;;;;;;;;20.12;60.43;99647.66;10325811;28;878;-72
2023/09/29 06:12:41;;;;;;;;;;;;;;;20.11;60.45;99649.47;10328080;28;1943;-73
2023/09/29 06:17:36;;;;;;;;;;;;;;;20.11;60.65;99651.25;10325838;28;974;-73
2023/09/29 06:22:34;;;;;;;;;;;;;;;20.09;60.65;99645.19;10333403;28;853;-75
2023/09/29 06:27:30;;;;;;;;;;;;;;;20.07;60.58;99652.38;10332986;28;893;-75
2023/09/29 06:32:26;;;;;;;;;;;;;;;20.07;60.60;99644.44;10350251;28;1140;-74
2023/09/29 06:37:22;;;;;;;;;;;;;;;20.07;60.48;99639.16;10374746;28;1937;-70
2023/09/29 06:42:18;;;;;;;;;;;;;;;20.05;60.56;99641.88;10373693;28;840;-73
2023/09/29 06:47:14;;;;;;;;;;;;;;;20.06;60.59;99626.84;10374390;28;865;-76
2023/09/29 06:52:10;;;;;;;;;;;;;;;20.07;60.81;99628.56;10373745;28;942;-72
2023/09/29 06:57:06;;;;;;;;;;;;;;;20.08;60.81;99630.25;10373688;28;1901;-72
2023/09/29 07:02:02;;;;;;;;;;;;;;;20.07;60.88;99628.56;10372309;28;860;-72
2023/09/29 07:06:58;;;;;;;;;;;;;;;20.07;60.83;99636.50;10373326;28;853;-72
2023/09/29 07:11:54;;;;;;;;;;;;;;;20.06;60.82;99637.41;10372950;28;833;-73
2023/09/29 07:16:52;;;;;;;;;;;;;;;20.06;60.55;99632.13;10336107;28;1959;-72
2023/09/29 07:21:48;;;;;;;;;;;;;;;20.03;60.82;99638.44;10330870;28;902;-72
2023/09/29 07:26:44;;;;;;;;;;;;;;;20.03;60.95;99629.66;10331444;28;897;-72
2023/09/29 07:31:46;;;;;;;;;;;;;;;20.06;60.82;99622.41;10326740;28;1303;-72
2023/09/29 07:36:44;;;;;;;;;;;;;;;20.09;60.72;99618.72;10330315;28;1973;-73
2023/09/29 07:41:40;;;;;;;;;;;;;;;20.17;60.54;99619.16;10330355;28;981;-71
2023/09/29 07:46:36;;;;;;;;;;;;;;;20.10;60.75;99610.72;10329900;28;878;-72
2023/09/29 07:51:32;;;;;;;;;;;;;;;20.11;60.76;99616.84;10329430;28;1012;-73
2023/09/29 07:56:29;;;;;;;;;;;;;;;20.10;60.74;99623.09;10329566;28;1898;-72
2023/09/29 08:01:24;;;;;;;;;;;;;;;20.09;60.83;99619.56;10329916;28;853;-72
2023/09/29 08:06:22;;;;;;;;;;;;;;;20.08;60.63;99615.22;10329282;28;918;-72
2023/09/29 08:11:18;;;;;;;;;;;;;;;20.09;60.68;99610.78;10326379;28;1877;-73
2023/09/29 08:16:15;;;;;;;;;;;;;;;20.08;60.70;99617.03;10316820;28;1955;-73
2023/09/29 08:21:11;;;;;;;;;;;;;;;20.08;60.68;99609.09;10328204;28;1096;-75
2023/09/29 08:26:06;;;;;;;;;;;;;;;20.10;60.78;99613.38;10328221;28;769;-78
2023/09/29 08:31:02;;;;;;;;;;;;;;;20.12;60.66;99600.03;10327739;28;1594;-79
2023/09/29 08:35:58;;;;;;;;;;;;;;;20.08;60.81;99609.94;10325775;28;1969;-74
2023/09/29 08:40:54;;;;;;;;;;;;;;;20.08;60.83;99596.72;10304401;28;822;-73
2023/09/29 08:45:50;;;;;;;;;;;;;;;20.10;60.80;99592.19;10313207;28;823;-73
2023/09/29 08:50:55;;;;;;;;;;;;;;;20.12;60.81;99605.31;10287111;28;826;-73
2023/09/29 08:55:51;;;;;;;;;;;;;;;20.10;60.68;99607.22;10285854;28;1894;-71
2023/09/29 09:00:47;;;;;;;;;;;;;;;20.13;60.72;99607.06;10285604;28;878;-75
2023/09/29 09:05:43;;;;;;;;;;;;;;;20.12;60.59;99602.69;10285991;28;758;-85
2023/09/29 09:10:40;;;;;;;;;;;;;;;20.09;60.80;99601.06;10285793;28;902;-70
2023/09/29 09:15:36;;;;;;;;;;;;;;;20.09;60.92;99597.56;10285551;28;1890;-70
2023/09/29 09:20:33;;;;;;;;;;;;;;;20.09;60.76;99606.34;10285358;28;795;-75
2023/09/29 09:25:29;;;;;;;;;;;;;;;20.12;61.01;99605.31;10285301;28;977;-79
2023/09/29 09:30:25;;;;;;;;;;;;;;;20.10;60.98;99610.72;10306633;28;1121;-81
2023/09/29 09:35:20;;;;;;;;;;;;;;;20.09;60.96;99605.50;10325781;28;1985;-79
2023/09/29 09:40:16;;;;;;;;;;;;;;;20.08;60.88;99609.94;10325606;28;758;-77
2023/09/29 09:45:13;;;;;;;;;;;;;;;20.08;61.03;99614.38;10325376;28;977;-75
2023/09/29 09:50:09;;;;;;;;;;;;;;;20.07;61.18;99625.91;10325306;28;842;-75
2023/09/29 09:55:05;;;;;;;;;;;;;;;20.06;61.18;99627.69;10324362;28;1953;-75
2023/09/29 10:00:01;;;;;;;;;;;;;;;20.05;61.37;99633.09;10324485;28;1024;-70
2023/09/29 10:05:00;;;;;;;;;;;;;;;20.06;61.09;99632.97;10325030;28;786;-69
2023/09/29 10:09:56;;;;;;;;;;;;;;;20.07;60.94;99629.41;10325223;28;868;-76
2023/09/29 10:14:52;;;;;;;;;;;;;;;20.11;61.08;99628.28;10324714;28;1903;-76
2023/09/29 10:19:51;;;;;;;;;;;;;;;20.13;61.01;99630.88;10324831;28;798;-77
2023/09/29 10:24:47;;;;;;;;;;;;;;;20.13;60.96;99642.31;10324215;28;1193;-77
2023/09/29 10:29:49;;;;;;;;;;;;;;;20.13;61.04;99638.81;10324719;28;887;-76
2023/09/29 10:34:45;;;;;;;;;;;;;;;20.14;61.07;99656.38;10325097;28;1914;-76
2023/09/29 10:39:44;;;;;;;;;;;;;;;20.15;61.02;99644.88;10324079;28;949;-79
2023/09/29 10:44:39;;;;;;;;;;;;;;;20.20;61.06;99650.78;10324604;28;855;-80
2023/09/29 10:49:36;;;;;;;;;;;;;;;20.19;61.16;99654.34;10323973;28;893;-80
2023/09/29 10:54:32;;;;;;;;;;;;;;;20.19;61.28;99656.97;10324299;28;1947;-81
2023/09/29 10:59:28;;;;;;;;;;;;;;;20.19;61.50;99649.03;10324996;28;865;-82
2023/09/29 11:04:24;;;;;;;;;;;;;;;20.24;61.70;99651.44;10327687;28;978;-83
2023/09/29 11:09:24;;;;;;;;;;;;;;;20.19;61.50;99659.63;10331527;28;937;-81
2023/09/29 11:14:20;;;;;;;;;;;;;;;20.16;61.72;99670.38;10331777;28;1961;-83
2023/09/29 11:19:16;;;;;;;;;;;;;;;20.13;62.05;99676.69;10331663;28;802;-80
2023/09/29 11:24:13;;;;;;;;;;;;;;;20.14;62.07;99698.72;10330446;28;940;-75
2023/09/29 11:29:09;;;;;;;;;;;;;;;20.14;62.12;99707.50;10329746;28;1204;-80
2023/09/29 11:34:06;;;;;;;;;;;;;;;20.17;62.00;99703.84;10328555;28;1991;-74
2023/09/29 11:39:02;;;;;;;;;;;;;;;20.19;61.67;99707.28;10355979;28;880;-74
2023/09/29 11:43:58;;;;;;;;;;;;;;;20.19;61.63;99701.97;10370512;28;1004;-74
2023/09/29 11:48:54;;;;;;;;;;;;;;;20.19;61.67;99701.97;10372015;28;778;-74
2023/09/29 11:53:50;;;;;;;;;;;;;;;20.19;61.71;99703.78;10335747;28;1910;-74
2023/09/29 11:58:46;;;;;;;;;;;;;;;20.23;61.40;99694.75;10329364;28;877;-74
2023/09/29 12:03:42;;;;;;;;;;;;;;;20.26;61.25;99708.66;10321780;28;1369;-74
2023/09/29 12:08:38;;;;;;;;;;;;;;;20.29;61.25;99719.06;10361292;28;938;-74
2023/09/29 12:13:36;;;;;;;;;;;;;;;20.29;61.09;99713.78;10369975;28;1955;-74
2023/09/29 12:18:33;;;;;;;;;;;;;;;20.30;61.00;99715.50;10369557;28;991;-75
2023/09/29 12:23:29;;;;;;;;;;;;;;;20.32;60.74;99708.31;10333470;28;1006;-73
2023/09/29 12:28:25;;;;;;;;;;;;;;;20.35;60.68;99726.66;10328091;28;810;-73
2023/09/29 12:33:21;;;;;;;;;;;;;;;20.37;60.68;99716.00;10327524;28;1977;-74
2023/09/29 12:38:17;;;;;;;;;;;;;;;20.39;60.51;99718.59;10327404;28;878;-73
2023/09/29 12:43:14;;;;;;;;;;;;;;;20.42;60.37;99713.13;10326622;28;988;-73
2023/09/29 12:48:10;;;;;;;;;;;;;;;20.48;60.41;99718.06;10328018;28;813;-73
2023/09/29 12:53:06;;;;;;;;;;;;;;;20.55;60.05;99730.91;10327668;28;1961;-72
2023/09/29 12:58:01;;;;;;;;;;;;;;;20.60;60.14;99721.88;10327638;28;929;-72
2023/09/29 13:03:04;;;;;;;;;;;;;;;20.61;59.95;99731.53;10326682;28;893;-73
2023/09/29 13:08:03;;;;;;;;;;;;;;;20.55;60.33;99730.06;10326530;28;925;-73
2023/09/29 13:12:59;;;;;;;;;;;;;;;20.43;60.59;99726.25;10326903;28;1898;-73
2023/09/29 13:17:55;;;;;;;;;;;;;;;20.39;60.76;99735.31;10326723;28;852;-73
2023/09/29 13:22:51;;;;;;;;;;;;;;;20.36;60.83;99746.94;10326692;28;897;-73
2023/09/29 13:27:47;;;;;;;;;;;;;;;20.33;60.95;99756.81;10316180;28;1349;-72
2023/09/29 13:32:43;;;;;;;;;;;;;;;20.30;61.03;99752.56;10325815;28;1254;-72
2023/09/29 13:37:39;;;;;;;;;;;;;;;20.28;61.20;99765.00;10325601;28;1975;-72
2023/09/29 13:42:35;;;;;;;;;;;;;;;20.29;61.07;99761.41;10325211;28;801;-72
2023/09/29 13:47:31;;;;;;;;;;;;;;;20.28;60.95;99770.31;10325259;28;1036;-72
2023/09/29 13:52:27;;;;;;;;;;;;;;;20.27;60.99;99768.59;10324274;28;806;-72
2023/09/29 13:57:23;;;;;;;;;;;;;;;20.29;61.19;99771.16;10324793;28;1948;-71
2023/09/29 14:02:18;;;;;;;;;;;;;;;20.31;60.92;99769.28;10323342;28;1165;-70
2023/09/29 14:07:14;;;;;;;;;;;;;;;20.36;60.83;99772.56;10324959;28;782;-70
2023/09/29 14:12:10;;;;;;;;;;;;;;;20.44;60.70;99795.97;10324271;28;933;-70
2023/09/29 14:17:06;;;;;;;;;;;;;;;20.47;60.60;99807.25;10325328;28;1886;-72
2023/09/29 14:22:02;;;;;;;;;;;;;;;20.49;60.65;99801.88;10325067;28;1133;-70
2023/09/29 14:26:58;;;;;;;;;;;;;;;20.59;60.37;99808.38;10324975;28;766;-70
2023/09/29 14:31:54;;;;;;;;;;;;;;;20.44;60.86;99812.72;10323942;28;1334;-70
2023/09/29 14:36:50;;;;;;;;;;;;;;;20.42;61.01;99805.78;10324607;28;1905;-70
2023/09/29 14:41:47;;;;;;;;;;;;;;;20.36;61.21;99807.81;10330844;28;767;-70
2023/09/29 14:46:43;;;;;;;;;;;;;;;20.32;61.28;99824.78;10333019;28;857;-70
2023/09/29 14:51:39;;;;;;;;;;;;;;;20.31;61.24;99833.66;10332163;28;783;-70
2023/09/29 14:56:35;;;;;;;;;;;;;;;20.32;61.23;99827.44;10331920;28;1949;-70
2023/09/29 15:01:31;;;;;;;;;;;;;;;20.31;61.12;99827.53;10331277;28;881;-70
2023/09/29 15:06:28;;;;;;;;;;;;;;;20.29;61.29;99830.25;10331665;28;865;-70
2023/09/29 15:11:24;;;;;;;;;;;;;;;20.28;61.46;99836.47;10331488;28;870;-70
2023/09/29 15:16:20;;;;;;;;;;;;;;;20.28;61.36;99847.06;10330278;28;1941;-70
2023/09/29 15:21:16;;;;;;;;;;;;;;;20.28;61.26;99847.06;10331951;28;841;-70
2023/09/29 15:26:11;;;;;;;;;;;;;;;20.27;61.43;99858.56;10330823;28;932;-70
2023/09/29 15:31:07;;;;;;;;;;;;;;;20.26;61.17;99851.59;10330574;28;1102;-76
2023/09/29 15:36:03;;;;;;;;;;;;;;;20.28;61.54;99865.59;10331060;28;1902;-78
2023/09/29 15:40:59;;;;;;;;;;;;;;;20.29;61.43;99872.59;10330955;28;845;-78
2023/09/29 15:45:55;;;;;;;;;;;;;;;20.28;61.58;99881.47;10330207;28;905;-77
2023/09/29 15:50:51;;;;;;;;;;;;;;;20.27;61.94;99882.41;10329696;28;822;-77
2023/09/29 15:55:47;;;;;;;;;;;;;;;20.26;61.55;99898.38;10330245;28;1890;-82
2023/09/29 16:00:43;;;;;;;;;;;;;;;20.27;61.71;99918.59;10329658;28;881;-79
2023/09/29 16:05:39;;;;;;;;;;;;;;;20.27;61.88;99932.69;10329414;28;814;-79
2023/09/29 16:10:35;;;;;;;;;;;;;;;20.28;62.36;99946.81;10329866;28;786;-74
2023/09/29 16:15:30;;;;;;;;;;;;;;;20.28;62.72;99958.25;10328655;28;1971;-72
2023/09/29 16:20:26;;;;;;;;;;;;;;;20.28;62.71;99970.63;10328841;28;934;-81
2023/09/29 16:25:22;;;;;;;;;;;;;;;20.29;62.46;99972.34;10327992;28;910;-74
2023/09/29 16:30:18;;;;;;;;;;;;;;;20.26;62.48;99981.28;10328305;28;1038;-76
2023/09/29 16:35:20;;;;;;;;;;;;;;;20.26;62.32;99991.03;10328136;28;1921;-76
2023/09/29 16:40:16;;;;;;;;;;;;;;;20.24;62.40;100009.59;10327489;28;876;-77
2023/09/29 16:45:12;;;;;;;;;;;;;;;20.24;62.49;100028.13;10327922;28;845;-76
2023/09/29 16:50:07;;;;;;;;;;;;;;;20.23;62.69;100047.63;10327619;28;913;-77
2023/09/29 16:55:04;;;;;;;;;;;;;;;20.21;63.00;100062.72;10327605;28;1953;-77
2023/09/29 16:59:59;;;;;;;;;;;;;;;20.20;62.93;100079.53;10328062;28;779;-77
2023/09/29 17:04:55;;;;;;;;;;;;;;;20.19;62.72;100091.03;10326904;28;885;-76
2023/09/29 17:09:51;;;;;;;;;;;;;;;20.19;62.47;100098.97;10326326;28;822;-76
2023/09/29 17:14:47;;;;;;;;;;;;;;;20.19;62.49;100116.66;10326636;28;1898;-77
2023/09/29 17:19:44;;;;;;;;;;;;;;;20.18;62.67;100129.03;10326505;28;771;-76
2023/09/29 17:24:42;;;;;;;;;;;;;;;20.15;62.56;100142.41;10326315;28;927;-77
2023/09/29 17:29:38;;;;;;;;;;;;;;;20.16;62.35;100153.84;10326162;28;973;-77
2023/09/29 17:34:34;;;;;;;;;;;;;;;20.13;62.59;100162.78;10325369;28;1905;-79
2023/09/29 17:39:30;;;;;;;;;;;;;;;20.13;62.38;100174.22;10326110;28;872;-78
2023/09/29 17:44:26;;;;;;;;;;;;;;;20.14;62.58;100189.16;10326374;28;896;-79
2023/09/29 17:49:22;;;;;;;;;;;;;;;20.15;62.56;100198.00;10326023;28;834;-78
2023/09/29 17:54:18;;;;;;;;;;;;;;;20.14;62.54;100202.41;10325428;28;1901;-76
2023/09/29 17:59:14;;;;;;;;;;;;;;;20.16;62.38;100212.06;10325716;28;811;-77
2023/09/29 18:04:10;;;;;;;;;;;;;;;20.14;62.40;100220.94;10325385;28;786;-77
2023/09/29 18:09:06;;;;;;;;;;;;;;;20.14;62.32;100228.00;10325358;28;860;-77
2023/09/29 18:14:03;;;;;;;;;;;;;;;20.14;62.30;100236.81;10326455;28;1898;-83
2023/09/29 18:18:59;;;;;;;;;;;;;;;20.15;62.09;100250.91;10334051;28;904;-77
2023/09/29 18:23:55;;;;;;;;;;;;;;;20.14;62.28;100255.31;10333426;28;767;-77
2023/09/29 18:28:51;;;;;;;;;;;;;;;20.15;62.21;100272.09;10333349;28;1237;-77
2023/09/29 18:33:47;;;;;;;;;;;;;;;20.14;62.14;100284.44;10332315;28;1914;-72
2023/09/29 18:38:43;;;;;;;;;;;;;;;20.12;62.17;100288.09;10331028;28;1092;-77
2023/09/29 18:43:39;;;;;;;;;;;;;;;20.14;62.29;100307.41;10333092;28;896;-76
2023/09/29 18:48:35;;;;;;;;;;;;;;;20.13;62.13;100317.16;10332145;28;897;-76
2023/09/29 18:53:31;;;;;;;;;;;;;;;20.13;62.15;100321.59;10331832;28;1894;-76
2023/09/29 18:58:26;;;;;;;;;;;;;;;20.12;62.16;100328.66;10331644;28;989;-76
2023/09/29 19:03:22;;;;;;;;;;;;;;;20.13;62.06;100340.97;10332125;28;831;-77
2023/09/29 19:08:18;;;;;;;;;;;;;;;20.12;62.18;100344.56;10331987;28;766;-77
2023/09/29 19:13:14;;;;;;;;;;;;;;;20.11;62.24;100361.34;10331762;28;1898;-76
2023/09/29 19:18:11;;;;;;;;;;;;;;;20.12;62.10;100362.19;10330951;28;922;-75
2023/09/29 19:23:07;;;;;;;;;;;;;;;20.12;62.01;100375.44;10330503;28;929;-76
2023/09/29 19:28:03;;;;;;;;;;;;;;;20.12;62.18;100383.38;10330572;28;847;-76
2023/09/29 19:32:59;;;;;;;;;;;;;;;20.12;62.07;100384.25;10330553;28;1250;-76
2023/09/29 19:37:55;;;;;;;;;;;;;;;20.11;62.05;100381.66;10330781;28;1983;-76
2023/09/29 19:42:51;;;;;;;;;;;;;;;20.10;62.09;100395.81;10329449;28;1181;-75
2023/09/29 19:47:47;;;;;;;;;;;;;;;20.11;62.03;100394.88;10330390;28;836;-76
2023/09/29 19:52:42;;;;;;;;;;;;;;;20.10;62.16;100390.53;10330219;28;787;-77
2023/09/29 19:57:38;;;;;;;;;;;;;;;20.10;62.00;100403.75;10329810;28;1902;-77
2023/09/29 20:02:34;;;;;;;;;;;;;;;20.10;62.19;100395.81;10329194;28;881;-76
2023/09/29 20:07:30;;;;;;;;;;;;;;;20.10;62.19;100395.81;10329096;28;872;-76
2023/09/29 20:12:26;;;;;;;;;;;;;;;20.11;62.12;100408.13;10329408;28;905;-75
2023/09/29 20:17:22;;;;;;;;;;;;;;;20.09;62.00;100409.97;10328320;28;1894;-76
2023/09/29 20:22:18;;;;;;;;;;;;;;;20.10;62.18;100427.59;10328694;28;838;-76
2023/09/29 20:27:14;;;;;;;;;;;;;;;20.09;62.11;100426.69;10328382;28;826;-76
2023/09/29 20:32:10;;;;;;;;;;;;;;;20.08;61.99;100430.28;10328366;28;1160;-77
2023/09/29 20:37:07;;;;;;;;;;;;;;;20.10;62.03;100443.47;10327099;28;1918;-75
2023/09/29 20:42:03;;;;;;;;;;;;;;;20.08;62.04;100443.53;10327720;28;867;-74
2023/09/29 20:46:58;;;;;;;;;;;;;;;20.06;62.07;100447.16;10328152;28;845;-71
2023/09/29 20:51:55;;;;;;;;;;;;;;;20.04;62.23;100456.94;10327944;28;829;-72
2023/09/29 20:56:50;;;;;;;;;;;;;;;20.04;62.03;100472.81;10327355;28;1902;-71
2023/09/29 21:01:46;;;;;;;;;;;;;;;20.04;62.14;100480.75;10327600;28;922;-73
2023/09/29 21:06:42;;;;;;;;;;;;;;;20.03;62.13;100494.91;10326799;28;921;-71
2023/09/29 21:11:39;;;;;;;;;;;;;;;20.03;61.98;100502.84;10326526;28;769;-72
2023/09/29 21:16:35;;;;;;;;;;;;;;;20.03;61.96;100510.78;10326343;28;1894;-73
2023/09/29 21:21:30;;;;;;;;;;;;;;;20.01;61.88;100508.19;10325650;28;1055;-72
2023/09/29 21:26:27;;;;;;;;;;;;;;;19.99;62.14;100525.94;10326798;28;962;-72
2023/09/29 21:31:26;;;;;;;;;;;;;;;20.00;62.01;100524.16;10325955;28;1090;-72
2023/09/29 21:36:22;;;;;;;;;;;;;;;20.03;61.87;100521.38;10326551;28;1917;-75
2023/09/29 21:41:18;;;;;;;;;;;;;;;20.03;61.75;100521.38;10325796;28;1525;-72
2023/09/29 21:46:14;;;;;;;;;;;;;;;20.02;61.92;100519.66;10325699;28;826;-75
2023/09/29 21:51:09;;;;;;;;;;;;;;;20.03;61.89;100530.19;10324266;28;1219;-75
2023/09/29 21:56:07;;;;;;;;;;;;;;;20.05;62.00;100530.13;10325534;28;1906;-74
2023/09/29 22:01:02;;;;;;;;;;;;;;;20.03;61.88;100531.97;10324818;28;997;-74
2023/09/29 22:05:58;;;;;;;;;;;;;;;20.02;61.88;100525.81;10326617;28;933;-75
2023/09/29 22:10:55;;;;;;;;;;;;;;;20.01;61.89;100537.31;10326099;28;832;-75
2023/09/29 22:15:50;;;;;;;;;;;;;;;20.01;61.82;100539.09;10325160;28;1898;-74
2023/09/29 22:20:46;;;;;;;;;;;;;;;20.00;61.77;100554.13;10325368;28;920;-75
2023/09/29 22:25:42;;;;;;;;;;;;;;;20.00;61.76;100563.84;10325083;28;870;-75
2023/09/29 22:30:38;;;;;;;;;;;;;;;19.99;61.84;100549.75;10324704;28;1659;-74
2023/09/29 22:35:35;;;;;;;;;;;;;;;19.98;61.81;100561.25;10324830;28;1917;-75
2023/09/29 22:40:31;;;;;;;;;;;;;;;19.98;61.65;100571.84;10325876;28;849;-75
2023/09/29 22:45:27;;;;;;;;;;;;;;;19.97;61.73;100569.28;10323924;28;897;-75
2023/09/29 22:50:23;;;;;;;;;;;;;;;19.96;61.65;100571.03;10326069;28;774;-75
2023/09/29 22:55:19;;;;;;;;;;;;;;;19.96;61.69;100564.88;10324327;28;1906;-74
2023/09/29 23:00:16;;;;;;;;;;;;;;;19.95;61.76;100581.69;10327107;28;867;-74
2023/09/29 23:05:12;;;;;;;;;;;;;;;19.94;61.68;100570.25;10331786;28;890;-75
2023/09/29 23:10:13;;;;;;;;;;;;;;;19.93;61.78;100557.91;10332237;28;858;-75
2023/09/29 23:15:09;;;;;;;;;;;;;;;19.93;61.64;100565.84;10331589;28;1959;-74
2023/09/29 23:20:09;;;;;;;;;;;;;;;19.93;61.62;100563.22;10331871;28;830;-75
2023/09/29 23:25:07;;;;;;;;;;;;;;;19.92;61.58;100554.41;10331019;28;984;-75
2023/09/29 23:30:03;;;;;;;;;;;;;;;19.92;61.77;100567.66;10331518;28;942;-74
2023/09/29 23:35:00;;;;;;;;;;;;;;;19.92;61.78;100574.72;10329967;28;1910;-74
2023/09/29 23:39:56;;;;;;;;;;;;;;;19.91;61.62;100581.81;10330695;28;850;-75
2023/09/29 23:44:52;;;;;;;;;;;;;;;19.90;61.58;100593.31;10330248;28;813;-74
2023/09/29 23:49:48;;;;;;;;;;;;;;;19.89;61.77;100591.59;10330779;28;838;-75
2023/09/29 23:54:44;;;;;;;;;;;;;;;19.89;61.57;100594.25;10330571;28;1894;-75
2023/09/29 23:59:39;;;;;;;;;;;;;;;19.89;61.63;100594.25;10329816;28;847;-75
